Time;durP1;ratioP1;P1;durP2;ratioP2;P2;SDS_P1;SDS_P2;PMS_P1;PMS_P2;Temp;Humidity;BMP_temperature;BMP_pressure;BME280_temperature;BME280_humidity;BME280_pressure;Samples;Min_cycle;Max_cycle;Signal;HPM_P1;HPM_P2
2023/10/02 00:05:05;;;;;;;8.00;3.45;;;;;;;17.08;100.00;101076.78;5095133;28;20088;-81
2023/10/02 00:07:45;;;;;;;8.43;4.10;;;;;;;17.09;100.00;101081.25;5077011;28;20418;-81
2023/10/02 00:10:29;;;;;;;9.55;4.00;;;;;;;17.08;100.00;101068.13;5094338;28;20156;-81
2023/10/02 00:13:00;;;;;;;9.00;3.72;;;;;;;17.08;100.00;101073.91;5076161;28;20024;-81
2023/10/02 00:15:29;;;;;;;6.85;3.70;;;;;;;17.04;100.00;101058.13;5094277;28;20392;-80
2023/10/02 00:17:57;;;;;;;8.45;3.80;;;;;;;17.14;100.00;101068.91;5094355;28;20469;-78
2023/10/02 00:20:22;;;;;;;9.30;3.40;;;;;;;17.18;100.00;101062.91;5094249;28;20027;-78
2023/10/02 00:22:50;;;;;;;7.30;4.32;;;;;;;17.18;100.00;101055.03;5059136;28;20024;-80
2023/10/02 00:25:21;;;;;;;7.90;3.80;;;;;;;17.21;100.00;101059.75;5076201;28;20035;-78
2023/10/02 00:27:50;;;;;;;11.73;4.20;;;;;;;17.24;100.00;101064.47;5093903;28;20016;-78
2023/10/02 00:30:20;;;;;;;6.97;3.40;;;;;;;17.30;100.00;101061.59;5076302;28;20440;-77
2023/10/02 00:32:47;;;;;;;8.75;3.78;;;;;;;17.30;100.00;101050.03;5076631;28;20028;-78
2023/10/02 00:35:22;;;;;;;8.27;3.83;;;;;;;17.34;100.00;101054.25;5059161;28;20028;-78
2023/10/02 00:37:51;;;;;;;6.60;3.42;;;;;;;17.38;100.00;101049.03;5094048;28;20027;-77
2023/10/02 00:40:30;;;;;;;8.38;4.10;;;;;;;17.40;100.00;101049.28;5094120;28;20024;-78
2023/10/02 00:45:49;;;;;;;7.32;3.72;;;;;;;17.37;100.00;101053.22;5064739;28;20047;-79
2023/10/02 00:48:28;;;;;;;9.02;4.15;;;;;;;17.39;100.00;101067.13;5080615;28;20028;-80
2023/10/02 00:50:59;;;;;;;9.57;4.35;;;;;;;17.42;100.00;101063.22;5061769;28;20142;-79
2023/10/02 00:53:38;;;;;;;;;;;;;;;17.41;100.00;101065.31;5076790;28;20028;-79
2023/10/02 00:56:28;;;;;;;9.65;3.90;;;;;;;17.44;100.00;101062.69;5071015;28;19920;-78
2023/10/02 00:59:14;;;;;;;8.02;3.88;;;;;;;17.43;100.00;101061.91;5071756;28;20028;-77
2023/10/02 01:01:42;;;;;;;10.23;4.35;;;;;;;17.46;100.00;101057.19;5070939;28;20024;-77
2023/10/02 01:04:24;;;;;;;9.98;3.88;;;;;;;17.47;100.00;101059.56;5072187;28;20051;-78
2023/10/02 01:06:54;;;;;;;9.50;3.90;;;;;;;17.46;100.00;101071.66;5072352;28;20381;-79
2023/10/02 01:09:26;;;;;;;11.00;4.97;;;;;;;17.42;100.00;101069.00;5072525;28;20029;-79
2023/10/02 01:12:03;;;;;;;;;;;;;;;17.38;100.00;101075.03;5072275;28;20033;-78
2023/10/02 01:17:23;;;;;;;8.73;4.03;;;;;;;17.37;100.00;101078.44;5072113;28;20086;-78
2023/10/02 01:20:00;;;;;;;7.57;4.32;;;;;;;17.39;100.00;101073.69;5071456;28;20113;-77
2023/10/02 01:22:46;;;;;;;7.43;4.10;;;;;;;17.44;100.00;101063.50;5072199;28;20089;-77
2023/10/02 01:25:12;;;;;;;12.75;4.63;;;;;;;17.41;100.00;101055.84;5071736;28;20036;-77
2023/10/02 01:27:40;;;;;;;10.05;4.70;;;;;;;17.48;100.00;101061.16;5071735;28;20100;-79
2023/10/02 01:30:16;;;;;;;8.43;4.28;;;;;;;17.51;100.00;101062.19;5071929;28;20032;-78
2023/10/02 01:33:35;;;;;;;8.48;4.28;;;;;;;17.56;100.00;101068.00;5074959;28;20027;-79
2023/10/02 01:36:09;;;;;;;9.73;4.30;;;;;;;17.60;100.00;101073.50;5072916;28;20086;-79
2023/10/02 01:38:37;;;;;;;9.48;4.35;;;;;;;17.61;100.00;101069.31;5077279;28;20031;-78
2023/10/02 01:41:05;;;;;;;7.47;4.32;;;;;;;17.64;100.00;101077.72;5076939;28;20020;-77
2023/10/02 01:43:44;;;;;;;13.63;4.25;;;;;;;17.64;100.00;101080.59;5077255;28;20024;-78
2023/10/02 01:46:30;;;;;;;8.35;4.00;;;;;;;17.50;100.00;101064.28;5075607;28;20028;-79
2023/10/02 01:48:56;;;;;;;7.65;4.63;;;;;;;17.58;100.00;101076.94;5076689;28;20461;-78
2023/10/02 01:53:56;;;;;;;11.07;4.60;;;;;;;17.60;100.00;101079.28;5075511;28;20047;-78
2023/10/02 01:56:45;;;;;;;7.30;4.70;;;;;;;17.58;100.00;101082.72;5094132;28;20070;-77
2023/10/02 01:59:14;;;;;;;6.05;3.58;;;;;;;17.52;100.00;101084.81;5060534;28;20029;-78
2023/10/02 02:02:12;;;;;;;9.95;4.53;;;;;;;17.48;100.00;101083.50;5078303;28;20039;-78
2023/10/02 02:04:38;;;;;;;7.57;3.50;;;;;;;17.46;100.00;101084.00;5083695;28;20032;-77
2023/10/02 02:07:11;;;;;;;7.38;3.95;;;;;;;17.48;100.00;101083.50;5061677;28;20105;-76
2023/10/02 02:09:53;;;;;;;11.40;4.22;;;;;;;17.48;100.00;101090.06;5096532;28;20032;-78
2023/10/02 02:12:20;;;;;;;8.82;4.00;;;;;;;17.40;100.00;101065.81;5097006;28;20024;-79
2023/10/02 02:14:52;;;;;;;7.82;4.28;;;;;;;17.48;100.00;101084.28;5096628;28;20027;-78
2023/10/02 02:17:21;;;;;;;10.68;4.72;;;;;;;17.52;100.00;101078.22;5096671;28;20024;-79
2023/10/02 02:19:50;;;;;;;8.98;4.35;;;;;;;17.53;100.00;101069.06;5096726;28;20028;-77
2023/10/02 02:22:32;;;;;;;11.40;4.43;;;;;;;17.53;100.00;101071.94;5096677;28;20032;-78
2023/10/02 02:25:04;;;;;;;14.07;5.22;;;;;;;17.51;100.00;101065.88;5096711;28;20103;-77
2023/10/02 02:27:31;;;;;;;12.57;4.32;;;;;;;17.59;100.00;101060.38;5096376;28;20048;-78
2023/10/02 02:30:12;;;;;;;10.27;4.32;;;;;;;17.53;100.00;101048.81;5096260;28;20023;-78
2023/10/02 02:32:44;;;;;;;9.57;4.18;;;;;;;17.58;100.00;101055.91;5096369;28;20028;-77
2023/10/02 02:35:13;;;;;;;11.85;4.97;;;;;;;17.61;100.00;101057.75;5095991;28;20036;-78
2023/10/02 02:37:41;;;;;;;8.38;4.65;;;;;;;17.66;100.00;101054.88;5078684;28;20054;-78
2023/10/02 02:40:25;;;;;;;8.07;4.20;;;;;;;17.67;100.00;101061.44;5078627;28;20023;-78
2023/10/02 02:42:54;;;;;;;10.68;4.60;;;;;;;17.64;100.00;101054.59;5096068;28;20477;-77
2023/10/02 02:45:31;;;;;;;8.15;4.43;;;;;;;17.68;100.00;101058.03;5078630;28;20059;-77
2023/10/02 02:48:07;;;;;;;6.20;3.85;;;;;;;17.68;100.00;101063.03;5064235;28;20024;-78
2023/10/02 02:50:40;;;;;;;9.77;4.45;;;;;;;17.71;100.00;101059.06;5078878;28;20093;-77
2023/10/02 02:53:16;;;;;;;9.55;4.63;;;;;;;17.72;100.00;101058.56;5096256;28;20103;-78
2023/10/02 02:56:09;;;;;;;9.40;4.85;;;;;;;17.72;100.00;101064.34;5095325;28;20056;-76
2023/10/02 02:58:48;;;;;;;11.57;5.20;;;;;;;17.73;100.00;101065.13;5079738;28;20024;-77
2023/10/02 03:01:21;;;;;;;11.88;4.43;;;;;;;17.74;100.00;101060.91;5095878;28;20027;-78
2023/10/02 03:04:12;;;;;;;10.20;4.50;;;;;;;17.70;100.00;101049.59;5078785;28;20497;-76
2023/10/02 03:06:38;;;;;;;14.68;5.13;;;;;;;17.72;100.00;101052.78;5078225;28;20012;-77
2023/10/02 03:09:09;;;;;;;9.38;5.25;;;;;;;17.73;100.00;101053.56;5077549;28;20103;-78
2023/10/02 03:11:35;;;;;;;11.60;4.50;;;;;;;17.74;100.00;101060.91;5095801;28;20028;-78
2023/10/02 03:14:14;;;;;;;11.38;4.93;;;;;;;17.72;100.00;101060.66;5094350;28;20301;-78
2023/10/02 03:16:45;;;;;;;11.25;5.72;;;;;;;17.73;100.00;101056.47;5079244;28;20024;-78
2023/10/02 03:19:13;;;;;;;11.65;5.35;;;;;;;17.72;100.00;101066.44;5077926;28;20043;-79
2023/10/02 03:21:42;;;;;;;10.13;5.47;;;;;;;17.75;100.00;101059.59;5077148;28;20373;-78
2023/10/02 03:24:12;;;;;;;7.88;4.43;;;;;;;17.76;100.00;101064.84;5078011;28;20051;-77
2023/10/02 03:26:38;;;;;;;10.15;4.75;;;;;;;17.77;100.00;101063.56;5095137;28;20023;-79
2023/10/02 03:29:16;;;;;;;10.13;4.93;;;;;;;17.78;100.00;101053.53;5077400;28;20368;-78
2023/10/02 03:31:43;;;;;;;9.75;4.32;;;;;;;17.78;100.00;101053.53;5094961;28;20024;-78
2023/10/02 03:34:29;;;;;;;9.27;4.10;;;;;;;17.76;100.00;101052.50;5077090;28;20110;-77
2023/10/02 03:37:24;;;;;;;9.13;4.32;;;;;;;17.77;100.00;101054.09;5095030;28;20434;-78
2023/10/02 03:39:52;;;;;;;9.65;5.00;;;;;;;17.75;100.00;101053.81;5094375;28;20035;-79
2023/10/02 03:42:33;;;;;;;8.88;4.10;;;;;;;17.73;100.00;101048.53;5094778;28;20379;-79
2023/10/02 03:45:04;;;;;;;9.88;4.53;;;;;;;17.78;100.00;101055.66;5094685;28;20381;-80
2023/10/02 03:47:33;;;;;;;13.18;4.85;;;;;;;17.72;100.00;101041.22;5061178;28;20031;-79
2023/10/02 03:50:03;;;;;;;11.50;4.80;;;;;;;17.75;100.00;101048.03;5060972;28;20085;-78
2023/10/02 03:52:30;;;;;;;12.18;4.90;;;;;;;17.64;100.00;101045.91;5076593;28;20107;-80
2023/10/02 03:54:57;;;;;;;9.43;3.97;;;;;;;17.69;100.00;101050.13;5072703;28;20098;-79
2023/10/02 04:02:45;;;;;;;11.77;4.90;;;;;;;17.67;100.00;101059.34;5074733;28;20068;-80
2023/10/02 04:05:30;;;;;;;10.88;5.45;;;;;;;17.69;100.00;101067.47;5057398;28;20033;-80
2023/10/02 04:08:15;;;;;;;10.07;4.65;;;;;;;17.74;100.00;101063.78;5074593;28;20020;-80
2023/10/02 04:11:03;;;;;;;10.68;5.00;;;;;;;17.74;100.00;101063.78;5074125;28;20089;-77
2023/10/02 04:13:34;;;;;;;11.13;4.80;;;;;;;17.72;100.00;101061.44;5074008;28;20465;-78
2023/10/02 04:18:46;;;;;;;8.23;4.22;;;;;;;17.65;100.00;101061.94;5074257;28;20066;-79
2023/10/02 04:21:25;;;;;;;10.15;3.95;;;;;;;17.66;100.00;101062.75;5073820;28;20036;-78
2023/10/02 04:23:53;;;;;;;11.98;4.50;;;;;;;17.66;100.00;101054.06;5073860;28;20024;-79
2023/10/02 04:26:21;;;;;;;10.35;4.75;;;;;;;17.68;100.00;101048.56;5073757;28;20020;-79
2023/10/02 04:28:56;;;;;;;11.23;5.10;;;;;;;17.68;100.00;101058.03;5073724;28;20056;-76
2023/10/02 04:31:29;;;;;;;8.48;4.55;;;;;;;17.69;100.00;101056.69;5073553;28;20028;-79
2023/10/02 04:34:24;;;;;;;9.25;4.22;;;;;;;17.71;100.00;101047.50;5073868;28;20052;-79
2023/10/02 04:36:41;;;;;;;11.35;4.75;;;;;;;17.71;100.00;101054.09;5071927;28;20075;-79
2023/10/02 04:39:51;;;;;;;8.45;4.18;;;;;;;17.72;100.00;101052.78;5055633;28;20227;-80
2023/10/02 04:42:14;;;;;;;9.60;4.03;;;;;;;17.70;100.00;101049.59;5071889;28;20521;-80
2023/10/02 04:44:44;;;;;;;13.93;4.47;;;;;;;17.68;100.00;101048.56;5073577;28;20024;-79
2023/10/02 04:47:18;;;;;;;11.75;4.55;;;;;;;17.66;100.00;101046.19;5072568;28;20020;-79
2023/10/02 04:55:31;;;;;;;9.02;5.15;;;;;;;17.60;100.00;101062.75;5084982;28;20435;-82
2023/10/02 05:01:34;;;;;;;11.50;4.07;;;;;;;17.55;100.00;101059.84;5077972;28;20490;-81
2023/10/02 05:03:49;;;;;;;12.35;4.30;;;;;;;17.55;100.00;101072.19;5095455;28;20042;-81
2023/10/02 05:06:52;;;;;;;8.77;4.25;;;;;;;17.50;100.00;101063.50;5109432;28;20004;-83
2023/10/02 05:09:25;;;;;;;12.52;4.30;;;;;;;17.57;100.00;101081.13;5110052;28;20020;-82
2023/10/02 05:12:06;;;;;;;13.80;4.15;;;;;;;17.57;100.00;101077.47;5086701;28;20024;-81
2023/10/02 05:14:51;;;;;;;;;;;;;;;17.58;100.00;101082.72;5099873;28;20537;-83
2023/10/02 05:20:07;;;;;;;9.07;4.28;;;;;;;17.59;100.00;101078.50;5094939;28;20112;-83
2023/10/02 05:22:36;;;;;;;8.93;4.30;;;;;;;17.59;100.00;101072.72;5094522;28;20051;-82
2023/10/02 05:25:08;;;;;;;11.23;4.25;;;;;;;17.65;100.00;101082.19;5094020;28;20056;-78
2023/10/02 05:27:44;;;;;;;11.70;4.00;;;;;;;17.68;100.00;101089.84;5058986;28;20016;-80
2023/10/02 05:30:17;;;;;;;9.70;4.32;;;;;;;17.72;100.00;101080.88;5093424;28;20035;-80
2023/10/02 05:32:44;;;;;;;9.30;3.65;;;;;;;17.76;100.00;101075.63;5075657;28;20051;-82
2023/10/02 05:37:51;;;;;;;11.95;4.63;;;;;;;17.87;100.00;101078.53;5093157;28;20056;-79
2023/10/02 05:42:53;;;;;;;11.13;4.25;;;;;;;17.93;100.00;101081.44;5075120;28;20105;-78
2023/10/02 05:48:09;;;;;;;10.15;3.92;;;;;;;18.01;100.00;101080.38;5093119;28;20107;-79
2023/10/02 05:50:45;;;;;;;11.48;3.78;;;;;;;17.98;100.00;101069.06;5092898;28;20061;-79
2023/10/02 05:53:11;;;;;;;15.02;3.80;;;;;;;18.07;100.00;101086.16;5093036;28;20016;-78
2023/10/02 05:58:31;;;;;;;9.55;3.47;;;;;;;18.20;100.00;101095.88;5093852;28;20066;-78
2023/10/02 06:01:02;;;;;;;13.10;4.43;;;;;;;18.23;100.00;101094.81;5093268;28;20051;-77
2023/10/02 06:04:00;;;;;;;9.15;3.20;;;;;;;18.27;100.00;101100.34;5093474;28;20495;-79
2023/10/02 06:06:28;;;;;;;9.27;3.97;;;;;;;18.33;100.00;101101.13;5092971;28;20028;-79
2023/10/02 06:08:55;;;;;;;9.73;3.75;;;;;;;18.35;100.00;101107.19;5058680;28;20481;-78
2023/10/02 06:11:31;;;;;;;7.40;3.42;;;;;;;18.38;100.00;101102.44;5092697;28;20497;-78
2023/10/02 06:14:09;;;;;;;10.50;3.60;;;;;;;18.43;100.00;101104.53;5076387;28;20036;-78
2023/10/02 06:16:41;;;;;;;13.10;4.03;;;;;;;18.49;100.00;101103.22;5060053;28;20031;-78
2023/10/02 06:19:13;;;;;;;9.43;4.07;;;;;;;18.58;100.00;101105.81;5094445;28;20156;-82
2023/10/02 06:21:47;;;;;;;11.63;3.38;;;;;;;18.60;100.00;101090.84;5079434;28;20035;-83
2023/10/02 06:24:15;;;;;;;7.68;3.25;;;;;;;18.65;100.00;101098.72;5062923;28;20079;-83
2023/10/02 06:26:49;;;;;;;7.55;4.18;;;;;;;18.72;100.00;101100.28;5096886;28;20020;-81
2023/10/02 06:29:28;;;;;;;13.98;3.63;;;;;;;18.86;100.00;101104.97;5096413;28;20096;-79
2023/10/02 06:32:05;;;;;;;9.57;4.03;;;;;;;19.03;100.00;101108.59;5095429;28;20031;-78
2023/10/02 06:34:38;;;;;;;6.55;3.60;;;;;;;19.19;100.00;101099.06;5095641;28;20020;-78
2023/10/02 06:37:16;;;;;;;9.35;3.72;;;;;;;19.36;100.00;101099.75;5059428;28;20035;-78
2023/10/02 06:40:37;;;;;;;8.45;3.60;;;;;;;19.51;100.00;101103.09;5096425;28;20099;-79
2023/10/02 06:42:48;;;;;;;6.00;3.65;;;;;;;19.61;100.00;101099.91;5056834;28;20043;-78
2023/10/02 06:45:29;;;;;;;11.15;3.55;;;;;;;19.74;100.00;101097.16;5078426;28;20024;-79
2023/10/02 06:47:56;;;;;;;8.07;3.35;;;;;;;19.86;100.00;101095.72;5078395;28;20508;-78
2023/10/02 06:50:31;;;;;;;6.75;3.40;;;;;;;19.94;100.00;101094.66;5043943;28;20020;-77
2023/10/02 06:53:01;;;;;;;10.68;3.47;;;;;;;20.06;100.00;101083.72;5061162;28;20492;-77
2023/10/02 06:55:29;;;;;;;8.07;3.10;;;;;;;20.18;100.00;101096.03;5077318;28;20044;-80
2023/10/02 06:58:14;;;;;;;9.10;4.03;;;;;;;20.32;100.00;101094.84;5079316;28;20397;-77
2023/10/02 07:01:03;;;;;;;7.05;3.47;;;;;;;20.45;100.00;101094.19;5095625;28;20024;-78
2023/10/02 07:03:29;;;;;;;7.35;3.45;;;;;;;20.50;100.00;101091.22;5095222;28;20051;-78
2023/10/02 07:05:54;;;;;;;7.25;3.30;;;;;;;20.61;100.00;101093.22;5095822;28;20102;-79
2023/10/02 07:08:26;;;;;;;6.45;3.78;;;;;;;20.71;100.00;101088.66;5095208;28;20170;-78
2023/10/02 07:11:11;;;;;;;7.95;3.50;;;;;;;20.77;100.00;101098.09;5095683;28;20377;-78
2023/10/02 07:13:51;;;;;;;7.93;3.10;;;;;;;20.94;100.00;101107.38;5095982;28;20028;-79
2023/10/02 07:16:22;;;;;;;11.23;3.92;;;;;;;21.27;100.00;101097.47;5095403;28;20028;-78
2023/10/02 07:18:53;;;;;;;10.85;4.13;;;;;;;21.84;100.00;101099.03;5096802;28;20043;-78
2023/10/02 07:21:21;;;;;;;8.30;3.72;;;;;;;22.38;100.00;101092.81;5096014;28;20557;-80
2023/10/02 07:24:04;;;;;;;6.13;3.50;;;;;;;22.78;100.00;101096.56;5094706;28;20047;-79
2023/10/02 07:29:16;;;;;;;11.18;3.72;;;;;;;23.83;100.00;101092.72;5065578;28;20038;-82
2023/10/02 07:31:45;;;;;;;5.95;3.63;;;;;;;24.58;100.00;101092.66;5095062;28;20031;-81
2023/10/02 07:34:25;;;;;;;5.95;3.10;;;;;;;25.11;100.00;101094.38;5095160;28;20028;-81
2023/10/02 07:36:53;;;;;;;5.88;3.10;;;;;;;25.33;100.00;101088.63;5094623;28;20101;-80
2023/10/02 07:42:08;;;;;;;6.78;3.40;;;;;;;25.34;100.00;101092.31;5095716;28;20381;-83
2023/10/02 07:44:39;;;;;;;7.28;3.45;;;;;;;25.54;100.00;101090.69;5078298;28;20318;-83
2023/10/02 07:47:10;;;;;;;6.97;3.80;;;;;;;25.63;100.00;101093.06;5078472;28;20547;-87
2023/10/02 07:49:44;;;;;;;8.05;3.50;;;;;;;25.68;100.00;101095.03;5078111;28;20118;-84
2023/10/02 07:52:11;;;;;;;6.82;2.70;;;;;;;25.85;100.00;101080.63;5078236;28;20107;-84
2023/10/02 07:54:48;;;;;;;5.75;3.38;;;;;;;26.45;100.00;101090.84;5095251;28;20020;-83
2023/10/02 07:57:18;;;;;;;10.05;3.05;;;;;;;27.04;100.00;101073.78;5095766;28;20032;-83
2023/10/02 07:59:45;;;;;;;7.32;2.70;;;;;;;27.74;95.63;101087.59;5095921;28;20043;-86
2023/10/02 08:02:27;;;;;;;6.15;3.22;;;;;;;28.25;92.55;101084.09;5077182;28;20043;-83
2023/10/02 08:04:52;;;;;;;7.45;3.33;;;;;;;28.76;90.67;101087.22;5095906;28;20379;-84
2023/10/02 08:07:18;;;;;;;9.43;3.80;;;;;;;29.14;85.63;101086.81;5095658;28;20040;-83
2023/10/02 08:09:53;;;;;;;15.32;3.50;;;;;;;29.36;83.17;101075.38;5077773;28;20077;-84
2023/10/02 08:12:29;;;;;;;7.78;3.90;;;;;;;29.62;82.87;101078.38;5076787;28;20130;-83
2023/10/02 08:15:05;;;;;;;5.35;3.25;;;;;;;29.80;79.75;101075.38;5078060;28;20472;-82
2023/10/02 08:20:19;;;;;;;12.95;3.35;;;;;;;29.72;77.22;101058.56;5094984;28;20024;-84
2023/10/02 08:22:48;;;;;;;7.55;2.92;;;;;;;29.84;78.05;101067.66;5094911;28;20469;-83
2023/10/02 08:25:23;;;;;;;7.65;3.25;;;;;;;30.12;77.35;101083.94;5094961;28;20389;-85
2023/10/02 08:28:09;;;;;;;7.85;3.38;;;;;;;30.24;74.78;101093.78;5098943;28;20050;-85
2023/10/02 08:30:37;;;;;;;8.93;3.88;;;;;;;30.28;73.18;101085.25;5100880;28;20166;-85
2023/10/02 08:33:05;;;;;;;6.78;3.60;;;;;;;30.34;73.89;101084.97;5064549;28;20034;-83
2023/10/02 08:35:39;;;;;;;9.38;3.10;;;;;;;30.24;72.95;101072.34;5099173;28;20039;-85
2023/10/02 08:38:21;;;;;;;5.78;3.05;;;;;;;30.27;75.15;101077.78;5068034;28;20049;-85
2023/10/02 08:41:08;;;;;;;5.18;2.72;;;;;;;30.16;73.34;101075.44;5084559;28;20032;-86
2023/10/02 08:43:45;;;;;;;8.35;3.35;;;;;;;30.11;72.75;101073.56;5101579;28;20043;-86
2023/10/02 08:46:23;;;;;;;9.15;2.97;;;;;;;30.13;75.34;101073.69;5062431;28;20024;-86
2023/10/02 08:48:54;;;;;;;9.18;3.70;;;;;;;30.21;74.11;101065.53;5079788;28;20038;-86
2023/10/02 08:51:32;;;;;;;7.63;3.10;;;;;;;30.37;74.22;101075.66;5078212;28;20036;-86
2023/10/02 08:54:17;;;;;;;9.40;3.58;;;;;;;30.52;72.76;101075.38;5094255;28;20066;-87
2023/10/02 08:56:50;;;;;;;6.35;3.03;;;;;;;30.58;71.85;101064.06;5076398;28;20527;-86
2023/10/02 08:59:18;;;;;;;8.45;4.38;;;;;;;30.58;71.94;101072.94;5077435;28;20028;-86
2023/10/02 09:01:47;;;;;;;4.82;2.83;;;;;;;30.52;70.19;101068.72;5093427;28;20040;-87
2023/10/02 09:04:40;;;;;;;6.13;3.00;;;;;;;30.43;73.43;101055.50;5079474;28;20024;-86
2023/10/02 09:07:21;;;;;;;8.95;3.53;;;;;;;30.38;72.42;101058.75;5101256;28;20035;-83
2023/10/02 09:09:54;;;;;;;;;;;;;;;30.22;72.10;101063.38;5098894;28;20012;-84
2023/10/02 09:12:27;;;;;;;7.68;3.25;;;;;;;30.17;72.60;101065.19;5100956;28;19908;-85
2023/10/02 09:14:58;;;;;;;11.77;3.10;;;;;;;30.05;69.00;101052.38;5094186;28;20050;-87
2023/10/02 09:17:44;;;;;;;10.23;3.17;;;;;;;29.89;74.20;101045.16;5077738;28;20024;-84
2023/10/02 09:20:10;;;;;;;5.90;3.38;;;;;;;29.67;73.49;101041.97;5091851;28;20047;-85
2023/10/02 09:22:38;;;;;;;12.45;3.47;;;;;;;29.71;75.75;101047.41;5103004;28;20114;-85
2023/10/02 09:25:10;;;;;;;4.57;2.85;;;;;;;29.75;74.51;101050.69;5111843;28;20024;-85
2023/10/02 09:30:49;;;;;;;4.35;2.85;;;;;;;29.73;74.77;101048.34;5094168;28;20128;-83
2023/10/02 09:33:23;;;;;;;7.40;3.28;;;;;;;29.67;72.85;101041.19;5110657;28;20054;-85
2023/10/02 09:35:52;;;;;;;12.40;3.85;;;;;;;29.62;75.24;101037.13;5110283;28;20016;-84
2023/10/02 09:38:32;;;;;;;6.95;3.50;;;;;;;29.53;73.22;101034.06;5101577;28;20031;-84
2023/10/02 09:41:16;;;;;;;10.52;2.97;;;;;;;29.33;73.36;101023.59;5095272;28;20024;-85
2023/10/02 09:43:42;;;;;;;6.95;3.25;;;;;;;29.12;75.56;101027.78;5094486;28;20032;-84
2023/10/02 09:46:21;;;;;;;5.50;2.92;;;;;;;28.97;78.80;101024.97;5076931;28;20151;-83
2023/10/02 09:49:21;;;;;;;6.72;3.15;;;;;;;28.85;81.00;101023.94;5079487;28;20115;-82
2023/10/02 09:52:10;;;;;;;10.05;2.63;;;;;;;28.82;81.43;101016.31;5077315;28;20031;-85
2023/10/02 09:55:00;;;;;;;6.82;3.35;;;;;;;28.73;82.26;100990.53;5063038;28;20480;-83
2023/10/02 09:57:53;;;;;;;7.03;3.15;;;;;;;28.81;77.72;101012.59;5080265;28;20033;-86
2023/10/02 10:00:37;;;;;;;6.95;3.03;;;;;;;28.62;77.50;101006.56;5096389;28;20059;-85
2023/10/02 10:03:30;;;;;;;9.40;3.15;;;;;;;28.43;78.60;101018.09;5084568;28;20028;-84
2023/10/02 10:06:15;;;;;;;6.25;3.28;;;;;;;28.26;79.13;101018.03;5079026;28;20027;-85
2023/10/02 10:09:25;;;;;;;7.15;3.10;;;;;;;28.12;79.36;101013.88;5097017;28;20032;-87
2023/10/02 10:12:21;;;;;;;4.55;2.72;;;;;;;28.01;85.52;101012.19;5097544;28;20380;-83
2023/10/02 10:14:54;;;;;;;4.75;2.75;;;;;;;27.98;84.24;101010.47;5097171;28;20041;-84
2023/10/02 10:17:21;;;;;;;8.13;3.03;;;;;;;27.90;81.60;101007.56;5097466;28;20372;-83
2023/10/02 10:22:57;;;;;;;4.40;2.50;;;;;;;27.78;85.93;101002.75;5015198;28;20030;-84
2023/10/02 10:25:32;;;;;;;5.10;2.65;;;;;;;27.76;87.35;101008.44;5062962;28;20101;-82
2023/10/02 10:28:09;;;;;;;6.55;3.05;;;;;;;27.75;86.24;101009.84;5097717;28;20046;-84
2023/10/02 10:35:51;;;;;;;4.38;2.75;;;;;;;27.60;85.26;100996.03;5117504;28;20067;-85
2023/10/02 10:41:33;;;;;;;7.40;2.70;;;;;;;27.06;86.29;100985.94;5084067;28;20020;-84
2023/10/02 10:44:06;;;;;;;4.78;2.08;;;;;;;26.88;87.62;100993.03;5097206;28;20039;-86
2023/10/02 10:46:32;;;;;;;8.00;2.90;;;;;;;26.64;90.28;100974.72;5080401;28;20020;-89
2023/10/02 10:49:15;;;;;;;12.98;2.80;;;;;;;26.60;94.42;100983.13;5078941;28;20080;-87
2023/10/02 10:51:43;;;;;;;9.10;3.03;;;;;;;26.53;100.00;100969.25;5066401;28;20401;-87
2023/10/02 10:54:17;;;;;;;4.35;2.67;;;;;;;26.54;94.56;100975.91;5079635;28;20393;-91
2023/10/02 11:03:13;;;;;;;4.63;2.33;;;;;;;26.34;92.35;100974.78;5097040;28;20039;-88
2023/10/02 11:05:39;;;;;;;5.28;2.38;;;;;;;26.23;96.40;100963.47;5080211;28;20035;-87
2023/10/02 11:08:25;;;;;;;4.57;2.30;;;;;;;26.18;98.38;100955.66;5078960;28;20024;-86
2023/10/02 11:11:21;;;;;;;9.55;2.92;;;;;;;26.18;94.54;100964.44;5095736;28;20048;-84
2023/10/02 11:13:59;;;;;;;4.80;2.60;;;;;;;26.07;94.38;100965.63;5077977;28;20024;-83
2023/10/02 11:16:55;;;;;;;6.35;2.70;;;;;;;26.01;94.45;100965.03;5078979;28;20048;-86
2023/10/02 11:19:55;;;;;;;7.70;2.42;;;;;;;25.98;96.20;100953.69;5096416;28;20534;-85
2023/10/02 11:22:23;;;;;;;9.10;2.55;;;;;;;25.91;97.06;100938.47;5096184;28;20028;-84
2023/10/02 11:24:54;;;;;;;4.28;2.53;;;;;;;25.99;94.23;100956.03;5078900;28;20024;-85
2023/10/02 11:27:35;;;;;;;;;;;;;;;25.92;94.16;100959.75;5097971;28;20103;-85
2023/10/02 11:30:31;;;;;;;7.97;2.95;;;;;;;25.90;96.74;100944.91;5079692;28;19908;-84
2023/10/02 11:33:02;;;;;;;8.35;2.65;;;;;;;25.80;93.47;100950.56;5096228;28;20058;-84
2023/10/02 11:35:29;;;;;;;7.70;2.95;;;;;;;25.84;93.58;100950.97;5079104;28;20035;-85
2023/10/02 11:37:56;;;;;;;5.72;2.70;;;;;;;25.74;95.17;100931.63;5059841;28;20043;-85
2023/10/02 11:40:25;;;;;;;4.82;2.60;;;;;;;25.58;96.17;100915.44;5077582;28;20032;-85
2023/10/02 11:42:52;;;;;;;8.23;2.30;;;;;;;25.74;95.63;100941.19;5095436;28;20023;-86
2023/10/02 11:45:18;;;;;;;5.13;2.03;;;;;;;25.64;97.14;100930.66;5097611;28;20023;-86
2023/10/02 11:47:45;;;;;;;6.38;2.75;;;;;;;25.72;95.35;100946.09;5097806;28;20024;-87
2023/10/02 11:50:12;;;;;;;6.00;2.17;;;;;;;25.70;95.57;100940.03;5096197;28;20385;-88
2023/10/02 11:52:38;;;;;;;4.47;2.60;;;;;;;25.65;96.44;100930.06;5095009;28;20040;-86
2023/10/02 11:55:06;;;;;;;6.20;2.58;;;;;;;25.54;96.90;100915.81;5095393;28;20121;-88
2023/10/02 11:57:33;;;;;;;4.57;2.55;;;;;;;25.62;97.31;100940.03;5077630;28;20024;-86
2023/10/02 12:00:08;;;;;;;7.47;3.63;;;;;;;25.59;96.01;100935.34;5094970;28;20043;-85
2023/10/02 12:02:40;;;;;;;4.55;3.03;;;;;;;25.58;97.46;100927.91;5095076;28;20043;-83
2023/10/02 12:05:07;;;;;;;4.40;2.50;;;;;;;25.59;98.63;100935.34;5094911;28;20047;-85
2023/10/02 12:07:33;;;;;;;6.75;2.60;;;;;;;25.61;98.58;100931.84;5095973;28;20024;-83
2023/10/02 12:10:15;;;;;;;4.93;2.53;;;;;;;25.62;100.00;100927.53;5071918;28;20088;-87
2023/10/02 12:12:55;;;;;;;4.80;2.45;;;;;;;25.55;100.00;100910.75;5098636;28;20036;-81
2023/10/02 12:15:21;;;;;;;5.18;2.55;;;;;;;25.67;100.00;100914.84;5106686;28;20050;-85
2023/10/02 12:17:47;;;;;;;6.05;2.53;;;;;;;25.73;100.00;100904.50;5078257;28;20085;-86
2023/10/02 12:20:16;;;;;;;7.03;2.80;;;;;;;25.83;99.84;100913.47;5095659;28;20387;-84
2023/10/02 12:22:50;;;;;;;6.32;2.35;;;;;;;25.87;97.90;100902.94;5076308;28;20480;-85
2023/10/02 12:25:16;;;;;;;12.30;3.17;;;;;;;25.92;98.57;100907.03;5095035;28;20414;-85
2023/10/02 12:27:41;;;;;;;6.18;2.33;;;;;;;25.96;98.42;100900.78;5092752;28;20516;-84
2023/10/02 12:30:13;;;;;;;7.90;2.78;;;;;;;26.02;99.20;100893.34;5076350;28;20087;-85
2023/10/02 12:32:40;;;;;;;;;;;;;;;26.06;100.00;100898.81;5095746;28;20031;-87
2023/10/02 12:35:07;;;;;;;6.18;2.55;;;;;;;26.09;100.00;100888.84;5076893;28;19924;-84
2023/10/02 12:37:32;;;;;;;4.38;2.55;;;;;;;26.05;99.73;100883.38;5076520;28;20024;-85
2023/10/02 12:39:58;;;;;;;4.10;2.65;;;;;;;26.10;98.92;100890.41;5076882;28;20058;-90
2023/10/02 12:42:24;;;;;;;5.13;2.67;;;;;;;26.14;97.88;100890.81;5077076;28;20028;-90
2023/10/02 12:44:56;;;;;;;4.30;2.63;;;;;;;26.18;96.25;100888.25;5075978;28;20036;-88
2023/10/02 12:47:24;;;;;;;4.32;2.42;;;;;;;26.21;93.90;100884.16;5094839;28;20012;-82
2023/10/02 12:49:54;;;;;;;4.00;2.45;;;;;;;26.28;95.24;100889.97;5094438;28;20019;-83
2023/10/02 12:52:23;;;;;;;4.75;2.45;;;;;;;26.37;93.70;100879.78;5094893;28;20043;-85
2023/10/02 12:54:48;;;;;;;4.90;2.40;;;;;;;26.44;93.98;100875.28;5094597;28;20052;-83
2023/10/02 12:57:15;;;;;;;5.30;2.72;;;;;;;26.55;91.80;100877.78;5095640;28;20035;-87
2023/10/02 12:59:42;;;;;;;7.35;2.90;;;;;;;26.64;92.51;100875.00;5059994;28;20034;-86
2023/10/02 13:02:09;;;;;;;6.03;3.00;;;;;;;26.74;91.29;100869.31;5076799;28;20388;-84
2023/10/02 13:04:36;;;;;;;4.32;2.83;;;;;;;26.81;89.66;100867.72;5095316;28;20165;-84